createdAt,value
2024-04-24T00:00:11.305Z,11.40
2024-04-24T00:03:06.605Z,11.50
2024-04-24T00:05:40.857Z,10.20
2024-04-24T00:08:12.540Z,14.40
2024-04-24T00:10:46.616Z,14.10
2024-04-24T00:13:18.302Z,14.50
2024-04-24T00:15:49.868Z,13.50
2024-04-24T00:18:22.714Z,12.60
2024-04-24T00:20:57.601Z,12.40
2024-04-24T00:23:29.161Z,13.40
2024-04-24T00:26:00.821Z,13.30
2024-04-24T00:28:32.465Z,11.30
2024-04-24T00:31:04.088Z,10.90
2024-04-24T00:33:35.937Z,11.50
2024-04-24T00:36:08.160Z,13.10
2024-04-24T00:38:39.703Z,14.80
2024-04-24T00:41:11.818Z,15.10
2024-04-24T00:43:43.599Z,16.00
2024-04-24T00:46:17.888Z,16.40
2024-04-24T00:48:49.611Z,14.50
2024-04-24T00:51:22.327Z,8.70
2024-04-24T00:53:54.449Z,9.10
2024-04-24T00:56:26.242Z,8.20
2024-04-24T00:58:58.252Z,8.60
2024-04-24T01:01:30.159Z,6.90
2024-04-24T01:04:01.621Z,8.20
2024-04-24T01:06:33.291Z,9.30
2024-04-24T01:09:05.377Z,9.20
2024-04-24T01:11:37.294Z,9.30
2024-04-24T01:14:09.319Z,9.70
2024-04-24T01:16:42.790Z,8.80
2024-04-24T01:19:39.525Z,8.70
2024-04-24T01:22:30.114Z,9.00
2024-04-24T01:25:13.539Z,8.70
2024-04-24T01:27:45.416Z,7.30
2024-04-24T01:30:16.948Z,8.30
2024-04-24T01:32:48.544Z,8.20
2024-04-24T01:35:20.620Z,8.20
2024-04-24T01:37:52.453Z,8.00
2024-04-24T01:40:24.097Z,7.60
2024-04-24T01:42:55.878Z,6.50
2024-04-24T01:45:27.472Z,6.80
2024-04-24T01:47:59.191Z,6.10
2024-04-24T01:50:31.031Z,6.60
2024-04-24T01:53:02.666Z,6.30
2024-04-24T01:55:34.159Z,6.70
2024-04-24T01:58:05.869Z,5.70
2024-04-24T02:00:37.391Z,5.60
2024-04-24T02:03:09.278Z,6.20
2024-04-24T02:05:41.031Z,5.90
2024-04-24T02:08:12.682Z,5.80
2024-04-24T02:10:44.261Z,5.80
2024-04-24T02:13:15.784Z,6.70
2024-04-24T02:15:47.478Z,5.50
2024-04-24T02:18:20.104Z,5.70
2024-04-24T02:20:51.719Z,5.40
2024-04-24T02:23:32.197Z,6.40
2024-04-24T02:26:08.057Z,6.20
2024-04-24T02:28:39.800Z,6.20
2024-04-24T02:31:11.285Z,5.80
2024-04-24T02:33:42.932Z,6.10
2024-04-24T02:36:14.523Z,6.20
2024-04-24T02:38:46.108Z,5.60
2024-04-24T02:41:17.712Z,5.80
2024-04-24T02:43:50.170Z,5.70
2024-04-24T02:46:21.804Z,6.60
2024-04-24T02:48:53.522Z,6.80
2024-04-24T02:51:25.405Z,6.20
2024-04-24T02:53:56.907Z,6.80
2024-04-24T02:56:28.477Z,6.00
2024-04-24T02:58:59.967Z,6.20
2024-04-24T03:01:31.580Z,9.40
2024-04-24T03:04:04.275Z,10.10
2024-04-24T03:06:35.835Z,8.10
2024-04-24T03:09:07.601Z,7.60
2024-04-24T03:11:41.553Z,6.80
2024-04-24T03:14:13.974Z,6.80
2024-04-24T03:16:45.609Z,6.40
2024-04-24T03:19:17.263Z,6.80
2024-04-24T03:21:49.491Z,6.30
2024-04-24T03:24:21.068Z,6.40
2024-04-24T03:26:52.592Z,6.50
2024-04-24T03:29:24.229Z,5.70
2024-04-24T03:31:56.057Z,7.00
2024-04-24T03:34:27.842Z,6.70
2024-04-24T03:36:59.357Z,6.10
2024-04-24T03:39:30.828Z,6.20
2024-04-24T03:42:02.362Z,6.40
2024-04-24T03:44:33.947Z,7.20
2024-04-24T03:47:05.706Z,6.70
2024-04-24T03:49:37.813Z,6.50
2024-04-24T03:52:09.620Z,6.40
2024-04-24T03:54:41.211Z,6.70
2024-04-24T03:57:13.168Z,6.20
2024-04-24T03:59:44.793Z,6.10
2024-04-24T04:02:16.456Z,6.20
2024-04-24T04:04:48.203Z,6.30
2024-04-24T04:07:19.930Z,6.70
2024-04-24T04:09:51.626Z,6.80
2024-04-24T04:12:23.362Z,6.80
2024-04-24T04:14:54.897Z,7.70
2024-04-24T04:17:26.620Z,6.90
2024-04-24T04:19:58.326Z,7.00
2024-04-24T04:22:30.575Z,7.30
2024-04-24T04:25:02.105Z,7.00
2024-04-24T04:27:35.577Z,7.80
2024-04-24T04:30:08.632Z,7.00
2024-04-24T04:32:40.181Z,6.60
2024-04-24T04:35:11.863Z,7.00
2024-04-24T04:37:43.573Z,7.90
2024-04-24T04:40:15.628Z,7.10
2024-04-24T04:42:47.249Z,6.70
2024-04-24T04:45:19.279Z,7.20
2024-04-24T04:47:50.993Z,6.20
2024-04-24T04:50:22.891Z,6.50
2024-04-24T04:52:56.653Z,6.40
2024-04-24T04:55:28.285Z,6.60
2024-04-24T04:58:04.046Z,6.50
2024-04-24T05:00:35.661Z,6.50
2024-04-24T05:03:09.676Z,7.10
2024-04-24T05:05:41.392Z,6.60
2024-04-24T05:08:12.936Z,7.20
2024-04-24T05:10:44.621Z,6.20
2024-04-24T05:13:17.445Z,5.40
2024-04-24T05:15:49.060Z,6.40
2024-04-24T05:18:23.055Z,5.20
2024-04-24T05:20:56.369Z,5.80
2024-04-24T05:23:27.979Z,5.50
2024-04-24T05:26:19.608Z,5.60
2024-04-24T05:29:08.547Z,6.00
2024-04-24T05:31:40.877Z,6.10
2024-04-24T05:34:12.537Z,6.00
2024-04-24T05:36:44.195Z,5.50
2024-04-24T05:39:15.724Z,6.50
2024-04-24T05:41:47.490Z,6.50
2024-04-24T05:44:19.635Z,6.30
2024-04-24T05:46:51.424Z,5.70
2024-04-24T05:49:23.384Z,5.90
2024-04-24T05:51:55.256Z,5.00
2024-04-24T05:54:26.772Z,5.30
2024-04-24T05:56:58.433Z,5.50
2024-04-24T05:59:30.131Z,4.60
2024-04-24T06:02:01.843Z,5.20
2024-04-24T06:04:33.444Z,5.20
2024-04-24T06:07:04.999Z,5.10
2024-04-24T06:09:37.245Z,5.60
2024-04-24T06:12:09.091Z,5.00
2024-04-24T06:14:40.902Z,4.90
2024-04-24T06:17:13.073Z,5.00
2024-04-24T06:19:44.996Z,4.70
2024-04-24T06:22:16.865Z,5.20
2024-04-24T06:24:48.418Z,5.80
2024-04-24T06:27:20.245Z,5.00
2024-04-24T06:29:51.767Z,5.50
2024-04-24T06:32:23.525Z,5.00
2024-04-24T06:34:55.228Z,5.00
2024-04-24T06:37:26.764Z,5.00
2024-04-24T06:39:58.334Z,5.30
2024-04-24T06:42:30.623Z,5.20
2024-04-24T06:45:02.030Z,5.80
2024-04-24T06:47:33.805Z,5.30
2024-04-24T06:50:05.929Z,5.20
2024-04-24T06:52:38.083Z,5.10
2024-04-24T06:55:09.641Z,5.00
2024-04-24T06:57:41.142Z,5.10
2024-04-24T07:00:13.925Z,5.00
2024-04-24T07:02:45.612Z,4.40
2024-04-24T07:05:17.509Z,5.20
2024-04-24T07:07:49.099Z,4.70
2024-04-24T07:10:20.680Z,4.90
2024-04-24T07:12:52.250Z,4.10
2024-04-24T07:15:23.783Z,4.70
2024-04-24T07:17:55.914Z,4.70
2024-04-24T07:20:27.853Z,4.30
2024-04-24T07:22:59.927Z,4.10
2024-04-24T07:25:31.701Z,4.90
2024-04-24T07:28:03.889Z,4.20
2024-04-24T07:30:35.424Z,4.60
2024-04-24T07:33:08.309Z,4.60
2024-04-24T07:35:39.979Z,4.00
2024-04-24T07:38:12.868Z,3.90
2024-04-24T07:40:44.453Z,3.80
2024-04-24T07:43:16.582Z,4.30
2024-04-24T07:45:48.115Z,3.50
2024-04-24T07:48:22.167Z,4.10
2024-04-24T07:50:54.322Z,3.70
2024-04-24T07:53:25.981Z,3.60
2024-04-24T07:55:58.197Z,3.60
2024-04-24T07:58:33.480Z,4.20
2024-04-24T08:01:05.307Z,4.50
2024-04-24T08:03:36.963Z,4.10
2024-04-24T08:06:09.505Z,4.10
2024-04-24T08:08:41.947Z,3.90
2024-04-24T08:11:13.721Z,4.40
2024-04-24T08:13:45.935Z,4.20
2024-04-24T08:16:17.515Z,4.70
2024-04-24T08:18:51.222Z,5.10
2024-04-24T08:21:23.027Z,5.40
2024-04-24T08:23:55.531Z,5.00
2024-04-24T08:26:27.669Z,5.20
2024-04-24T08:28:59.418Z,5.10
2024-04-24T08:31:31.519Z,5.90
2024-04-24T08:34:03.280Z,4.90
2024-04-24T08:36:35.217Z,5.10
2024-04-24T08:39:07.815Z,5.30
2024-04-24T08:41:42.914Z,5.90
2024-04-24T08:44:16.843Z,6.10
2024-04-24T08:46:48.722Z,5.50
2024-04-24T08:49:22.039Z,5.50
2024-04-24T08:51:57.344Z,5.70
2024-04-24T08:54:30.745Z,5.70
2024-04-24T08:57:06.890Z,5.10
2024-04-24T08:59:45.179Z,5.20
2024-04-24T09:02:17.926Z,5.70
2024-04-24T09:04:52.269Z,5.40
2024-04-24T09:07:25.628Z,5.10
2024-04-24T09:09:57.850Z,5.30
2024-04-24T09:12:31.156Z,4.50
2024-04-24T09:15:05.123Z,5.00
2024-04-24T09:17:37.766Z,4.70
2024-04-24T09:20:12.385Z,5.10
2024-04-24T09:22:44.240Z,6.00
2024-04-24T09:25:16.031Z,5.10
2024-04-24T09:27:48.738Z,5.20
2024-04-24T09:30:22.082Z,5.50
2024-04-24T09:32:54.019Z,5.60
2024-04-24T09:35:26.826Z,5.30
2024-04-24T09:37:59.604Z,5.70
2024-04-24T09:40:32.118Z,5.40
2024-04-24T09:43:04.649Z,5.60
2024-04-24T09:45:36.662Z,4.70
2024-04-24T09:48:17.550Z,5.50
2024-04-24T09:50:51.203Z,5.50
2024-04-24T09:53:24.241Z,4.60
2024-04-24T09:56:02.441Z,5.60
2024-04-24T09:58:37.644Z,4.90
2024-04-24T10:01:10.811Z,5.40
2024-04-24T10:03:44.308Z,5.10
2024-04-24T10:06:22.100Z,5.20
2024-04-24T10:08:57.229Z,4.90
2024-04-24T10:11:34.894Z,5.00
2024-04-24T10:14:08.111Z,5.10
2024-04-24T10:16:40.926Z,4.90
2024-04-24T10:19:15.607Z,4.90
2024-04-24T10:21:49.538Z,5.00
2024-04-24T10:24:24.926Z,5.30
2024-04-24T10:26:58.840Z,5.50
2024-04-24T10:29:32.078Z,5.10
2024-04-24T10:32:05.711Z,5.00
2024-04-24T10:34:38.373Z,5.10
2024-04-24T10:37:10.340Z,4.90
2024-04-24T10:39:48.294Z,4.70
2024-04-24T10:42:22.141Z,5.50
2024-04-24T10:44:54.871Z,5.00
2024-04-24T10:47:27.777Z,4.70
2024-04-24T10:50:01.069Z,5.00
2024-04-24T10:52:32.584Z,4.70
2024-04-24T10:55:12.693Z,4.80
2024-04-24T10:57:48.279Z,5.10
2024-04-24T11:00:21.808Z,4.60
2024-04-24T11:02:59.154Z,4.80
2024-04-24T11:05:36.012Z,4.80
2024-04-24T11:08:08.957Z,5.20
2024-04-24T11:10:41.247Z,4.70
2024-04-24T11:13:16.741Z,5.50
2024-04-24T11:15:54.837Z,5.50
2024-04-24T11:18:36.687Z,4.10
2024-04-24T11:21:08.502Z,5.70
2024-04-24T11:23:48.613Z,5.00
2024-04-24T11:26:29.981Z,4.30
2024-04-24T11:29:06.762Z,4.80
2024-04-24T11:31:41.970Z,4.60
2024-04-24T11:34:16.223Z,5.20
2024-04-24T11:36:49.248Z,4.60
2024-04-24T11:39:23.736Z,4.30
2024-04-24T11:41:57.571Z,4.80
2024-04-24T11:44:29.841Z,5.20
2024-04-24T11:47:01.703Z,5.20
2024-04-24T11:49:33.906Z,6.20
2024-04-24T11:52:09.677Z,5.00
2024-04-24T11:54:41.827Z,4.30
2024-04-24T11:57:15.687Z,5.20
2024-04-24T11:59:49.803Z,5.10
2024-04-24T12:02:22.330Z,4.70
2024-04-24T12:04:54.194Z,4.30
2024-04-24T12:07:29.293Z,4.50
2024-04-24T12:10:01.304Z,4.70
2024-04-24T12:12:33.432Z,4.30
2024-04-24T12:15:05.296Z,4.50
2024-04-24T12:17:37.401Z,4.30
2024-04-24T12:20:10.073Z,3.90
2024-04-24T12:22:41.963Z,3.80
2024-04-24T12:25:13.575Z,4.50
2024-04-24T12:27:45.538Z,4.70
2024-04-24T12:30:17.384Z,4.20
2024-04-24T12:32:49.193Z,3.90
2024-04-24T12:35:21.224Z,3.70
2024-04-24T12:37:52.810Z,4.00
2024-04-24T12:40:24.358Z,3.90
2024-04-24T12:42:56.038Z,3.90
2024-04-24T12:45:28.120Z,3.50
2024-04-24T12:47:59.810Z,4.30
2024-04-24T12:50:31.624Z,3.80
2024-04-24T12:53:03.968Z,3.60
2024-04-24T12:55:35.721Z,3.70
2024-04-24T12:58:07.995Z,3.90
2024-04-24T13:00:41.802Z,3.90
2024-04-24T13:03:13.598Z,3.50
2024-04-24T13:05:45.590Z,3.80
2024-04-24T13:08:17.548Z,4.20
2024-04-24T13:10:49.319Z,4.10
2024-04-24T13:13:21.076Z,3.60
2024-04-24T13:15:53.265Z,4.30
2024-04-24T13:18:26.579Z,4.00
2024-04-24T13:20:59.061Z,4.30
2024-04-24T13:23:30.746Z,3.50
2024-04-24T13:26:02.462Z,3.80
2024-04-24T13:28:36.982Z,3.60
2024-04-24T13:31:08.630Z,4.00
2024-04-24T13:33:40.294Z,3.70
2024-04-24T13:36:12.044Z,3.90
2024-04-24T13:38:45.394Z,4.00
2024-04-24T13:41:18.372Z,4.20
2024-04-24T13:43:53.532Z,4.10
2024-04-24T13:46:25.713Z,3.70
2024-04-24T13:48:57.378Z,3.70
2024-04-24T13:51:28.998Z,3.70
2024-04-24T13:54:00.665Z,3.30
2024-04-24T13:56:32.478Z,3.60
2024-04-24T13:59:04.927Z,3.90
2024-04-24T14:01:36.585Z,3.70
2024-04-24T14:04:08.573Z,3.90
2024-04-24T14:06:40.673Z,4.70
2024-04-24T14:09:12.390Z,3.70
2024-04-24T14:11:48.270Z,4.20
2024-04-24T14:14:20.986Z,3.90
2024-04-24T14:16:52.740Z,4.00
2024-04-24T14:19:24.674Z,3.90
2024-04-24T14:21:56.651Z,4.00
2024-04-24T14:24:28.631Z,4.40
2024-04-24T14:27:00.445Z,3.60
2024-04-24T14:29:32.137Z,3.80
2024-04-24T14:32:04.501Z,4.70
2024-04-24T14:34:37.969Z,3.80
2024-04-24T14:37:09.969Z,3.50
2024-04-24T14:39:41.603Z,3.80
2024-04-24T14:42:13.273Z,4.10
2024-04-24T14:44:46.713Z,3.90
2024-04-24T14:47:18.493Z,4.30
2024-04-24T14:49:50.554Z,4.30
2024-04-24T14:52:24.272Z,4.20
2024-04-24T14:54:58.487Z,4.00
2024-04-24T14:57:30.050Z,4.00
2024-04-24T15:00:03.084Z,4.00
2024-04-24T15:02:35.201Z,3.70
2024-04-24T15:05:07.898Z,4.20
2024-04-24T15:07:41.868Z,4.50
2024-04-24T15:10:13.672Z,3.50
2024-04-24T15:12:45.804Z,3.30
2024-04-24T15:15:17.604Z,3.90
2024-04-24T15:17:51.389Z,4.00
2024-04-24T15:20:23.278Z,3.80
2024-04-24T15:22:54.814Z,4.00
2024-04-24T15:25:26.900Z,4.30
2024-04-24T15:27:59.231Z,4.20
2024-04-24T15:30:31.256Z,3.90
2024-04-24T15:33:03.137Z,3.90
2024-04-24T15:35:35.071Z,4.40
2024-04-24T15:38:07.236Z,3.90
2024-04-24T15:40:38.984Z,3.90
2024-04-24T15:43:14.785Z,3.70
2024-04-24T15:48:16.662Z,3.80
2024-04-24T15:50:48.446Z,4.40
2024-04-24T15:53:20.149Z,4.50
2024-04-24T15:55:52.418Z,4.90
2024-04-24T15:58:24.434Z,4.30
2024-04-24T16:00:56.556Z,3.70
2024-04-24T16:03:28.893Z,4.30
2024-04-24T16:06:00.591Z,4.50
2024-04-24T16:08:33.642Z,4.50
2024-04-24T16:11:05.947Z,4.60
2024-04-24T16:13:38.825Z,4.50
2024-04-24T16:16:10.975Z,4.40
2024-04-24T16:18:46.244Z,4.10
2024-04-24T16:21:21.621Z,4.50
2024-04-24T16:23:53.319Z,4.10
2024-04-24T16:26:24.889Z,4.40
2024-04-24T16:28:56.537Z,4.60
2024-04-24T16:31:28.332Z,4.60
2024-04-24T16:34:00.245Z,3.70
2024-04-24T16:36:35.140Z,4.00
2024-04-24T16:39:07.870Z,5.40
2024-04-24T16:41:39.491Z,4.10
2024-04-24T16:44:11.426Z,4.70
2024-04-24T16:46:45.058Z,4.40
2024-04-24T16:49:16.709Z,4.80
2024-04-24T16:51:48.299Z,4.70
2024-04-24T16:54:19.948Z,4.30
2024-04-24T16:56:51.461Z,4.30
2024-04-24T16:59:23.135Z,4.40
2024-04-24T17:01:54.701Z,5.00
2024-04-24T17:04:26.385Z,4.90
2024-04-24T17:06:57.929Z,3.90
2024-04-24T17:09:32.183Z,4.10
2024-04-24T17:12:05.228Z,4.40
2024-04-24T17:14:38.008Z,4.20
2024-04-24T17:17:12.195Z,3.90
2024-04-24T17:19:44.608Z,4.20
2024-04-24T17:22:16.637Z,3.80
2024-04-24T17:24:48.452Z,4.40
2024-04-24T17:27:20.517Z,4.10
2024-04-24T17:29:52.927Z,4.60
2024-04-24T17:32:24.482Z,4.70
2024-04-24T17:34:56.225Z,4.20
2024-04-24T17:37:28.098Z,4.20
2024-04-24T17:39:59.752Z,4.10
2024-04-24T17:42:31.419Z,4.50
2024-04-24T17:45:03.353Z,3.80
2024-04-24T17:47:35.214Z,4.10
2024-04-24T17:50:08.070Z,4.30
2024-04-24T17:52:39.724Z,4.20
2024-04-24T17:55:11.911Z,4.20
2024-04-24T17:57:43.677Z,4.80
2024-04-24T18:00:16.275Z,4.00
2024-04-24T18:02:48.225Z,4.20
2024-04-24T18:05:22.145Z,4.00
2024-04-24T18:07:55.077Z,3.70
2024-04-24T18:10:29.612Z,4.30
2024-04-24T18:13:03.579Z,3.80
2024-04-24T18:15:35.196Z,4.10
2024-04-24T18:18:07.423Z,4.30
2024-04-24T18:20:39.195Z,3.90
2024-04-24T18:23:12.174Z,4.70
2024-04-24T18:25:44.522Z,4.10
2024-04-24T18:28:16.964Z,3.90
2024-04-24T18:30:48.785Z,4.40
2024-04-24T18:33:20.682Z,4.50
2024-04-24T18:35:53.392Z,4.90
2024-04-24T18:38:25.190Z,4.80
2024-04-24T18:40:57.310Z,4.90
2024-04-24T18:43:29.284Z,5.20
2024-04-24T18:46:01.051Z,5.60
2024-04-24T18:48:33.102Z,5.20
2024-04-24T18:51:05.015Z,5.20
2024-04-24T18:53:38.940Z,5.80
2024-04-24T18:56:10.596Z,6.50
2024-04-24T18:58:42.231Z,5.90
2024-04-24T19:01:13.832Z,5.10
2024-04-24T19:03:46.357Z,6.10
2024-04-24T19:06:18.827Z,6.00
2024-04-24T19:08:53.618Z,5.60
2024-04-24T19:11:25.381Z,6.60
2024-04-24T19:13:57.933Z,6.90
2024-04-24T19:16:30.439Z,7.60
2024-04-24T19:19:02.171Z,6.70
2024-04-24T19:21:33.754Z,8.20
2024-04-24T19:24:06.766Z,7.80
2024-04-24T19:26:38.579Z,8.60
2024-04-24T19:29:11.949Z,8.60
2024-04-24T19:31:44.935Z,9.00
2024-04-24T19:34:16.785Z,9.10
2024-04-24T19:36:49.962Z,9.60
2024-04-24T19:39:21.510Z,9.20
2024-04-24T19:41:53.195Z,8.90
2024-04-24T19:44:27.314Z,9.80
2024-04-24T19:46:59.020Z,9.50
2024-04-24T19:49:30.614Z,10.00
2024-04-24T19:52:02.185Z,9.80
2024-04-24T19:54:38.164Z,10.00
2024-04-24T19:59:39.971Z,10.00
2024-04-24T20:02:11.512Z,10.30
2024-04-24T20:04:43.405Z,10.30
2024-04-24T20:07:15.582Z,10.20
2024-04-24T20:09:50.593Z,10.30
2024-04-24T20:12:22.241Z,10.30
2024-04-24T20:14:53.791Z,10.20
2024-04-24T20:17:25.508Z,10.10
2024-04-24T20:19:57.128Z,11.60
2024-04-24T20:22:29.454Z,12.40
2024-04-24T20:25:03.959Z,14.00
2024-04-24T20:27:36.037Z,12.60
2024-04-24T20:30:09.727Z,13.30
2024-04-24T20:32:41.610Z,14.60
2024-04-24T20:35:16.382Z,16.80
2024-04-24T20:37:48.603Z,14.70
2024-04-24T20:40:20.155Z,15.70
2024-04-24T20:42:51.925Z,17.10
2024-04-24T20:45:23.425Z,16.70
2024-04-24T20:47:55.202Z,17.20
2024-04-24T20:50:26.889Z,19.80
2024-04-24T20:52:58.558Z,19.50
2024-04-24T20:55:30.080Z,21.70
2024-04-24T20:58:02.396Z,22.30
2024-04-24T21:00:34.981Z,24.80
2024-04-24T21:03:06.903Z,29.80
2024-04-24T21:05:38.863Z,29.70
2024-04-24T21:08:11.251Z,28.70
2024-04-24T21:10:44.448Z,28.90
2024-04-24T21:13:16.286Z,26.50
2024-04-24T21:15:48.101Z,28.20
2024-04-24T21:18:19.835Z,25.50
2024-04-24T21:20:52.432Z,26.70
2024-04-24T21:23:24.190Z,26.60
2024-04-24T21:25:59.762Z,27.40
2024-04-24T21:28:37.070Z,26.10
2024-04-24T21:31:08.689Z,26.30
2024-04-24T21:33:40.423Z,25.20
2024-04-24T21:36:12.283Z,24.00
2024-04-24T21:38:43.939Z,23.80
2024-04-24T21:41:23.060Z,22.30
2024-04-24T21:43:54.654Z,23.40
2024-04-24T21:46:26.290Z,21.40
2024-04-24T21:48:57.864Z,20.00
2024-04-24T21:51:32.334Z,19.10
2024-04-24T21:54:04.325Z,18.80
2024-04-24T21:56:36.087Z,15.80
2024-04-24T21:59:07.741Z,16.10
2024-04-24T22:01:39.914Z,15.50
2024-04-24T22:04:11.511Z,13.30
2024-04-24T22:06:44.850Z,13.20
2024-04-24T22:09:16.642Z,11.40
2024-04-24T22:14:21.197Z,8.30
2024-04-24T22:16:53.807Z,10.80
2024-04-24T22:19:25.588Z,9.00
2024-04-24T22:21:57.225Z,9.50
2024-04-24T22:24:29.350Z,10.00
2024-04-24T22:27:00.907Z,9.90
2024-04-24T22:29:32.574Z,9.80
2024-04-24T22:32:04.291Z,8.60
2024-04-24T22:34:35.914Z,8.10
2024-04-24T22:37:07.696Z,9.30
2024-04-24T22:39:39.414Z,8.70
2024-04-24T22:42:11.339Z,8.10
2024-04-24T22:44:42.971Z,9.00
2024-04-24T22:47:14.841Z,8.70
2024-04-24T22:49:47.264Z,9.10
2024-04-24T22:52:18.880Z,9.50
2024-04-24T22:54:50.443Z,8.20
2024-04-24T22:57:22.089Z,8.90
2024-04-24T22:59:53.582Z,8.40
2024-04-24T23:02:25.369Z,9.70
2024-04-24T23:04:57.894Z,9.10
2024-04-24T23:07:29.362Z,8.40
2024-04-24T23:10:01.023Z,7.80
2024-04-24T23:12:32.880Z,7.20
2024-04-24T23:15:04.925Z,6.50
2024-04-24T23:17:36.773Z,6.90
2024-04-24T23:20:10.127Z,6.20
2024-04-24T23:22:42.008Z,7.50
2024-04-24T23:25:14.488Z,6.50
2024-04-24T23:27:47.341Z,8.40
2024-04-24T23:30:19.146Z,7.20
2024-04-24T23:32:51.211Z,6.90
2024-04-24T23:35:23.101Z,7.20
2024-04-24T23:37:54.712Z,6.70
2024-04-24T23:40:26.322Z,6.70
2024-04-24T23:42:58.040Z,6.90
2024-04-24T23:45:32.393Z,7.10
2024-04-24T23:48:04.813Z,7.00
2024-04-24T23:50:36.561Z,7.20
2024-04-24T23:53:09.075Z,7.60
2024-04-24T23:55:40.851Z,7.40
2024-04-24T23:58:12.538Z,6.80
